Tiempo atmosférico en la estación meteorológica de Valleseco, Las Palmas (900 m.)



Fecha
DESCASC
Temp. máxima en grados centígrados (hora)
DESCASC
Temp. mínima en grados centígrados (hora)
DESCASC
Temp. media en grados centígrados
DESCASC
Racha de viento máxima en m/sg (hora)
DESCASC
Velocidad máxima media en intervalos de 10 minutos(hora)
DESCASC
Precipitaciones diarias en mm
DESCASC
Precipitaciones de 00:00 a 06:00 en mm
DESCASC
Precipitaciones de 06:00 a 12:00 en mm
DESCASC
Precipitaciones de 12:00 a 18:00 en mm
DESCASC
Precipitaciones de 18:00 a 24:00 en mm
DESCASC
20-10-2019 20.7 (12:00) 13.3 (04:00) 17 7.5 (16:10) 3.61 (18:10) 24.8 0 0 11.4 13.4
19-10-2019 20.6 (15:10) 13.8 (00:50) 17.2 6.39 (15:40) 3.06 (14:10) 0 0 0 0 0
18-10-2019 20.3 (15:50) 12.4 (01:00) 16.3 5.56 (16:00) 3.06 (15:40) 0 0 0 0 0
17-10-2019 19.6 (13:00) 12.6 (00:00) 16.1 5.83 (18:00) 3.61 (17:40) 0.2 0.2 0 0 0
16-10-2019 15.1 (14:20) 13 (00:00) 14.1 6.11 (00:10) 4.17 (00:10) 0.6 0.2 0 0.4 0
15-10-2019 15.3 (12:30) 12.8 (00:00) 14.1 6.39 (14:20) 4.17 (23:10) 1 0.2 0.6 0.2 0
14-10-2019 18.1 (18:50) 12.1 (00:00) 15.1 4.72 (12:40) 2.5 (01:40) 2.2 0 2.2 0 0
13-10-2019 21.4 (15:30) 11.5 (00:00) 16.4 5 (15:30) 2.78 (15:30) 0 0 0 0 0
12-10-2019 21.1 (15:10) 13.6 (00:00) 17.4 5.28 (18:10) 3.06 (13:10) 0 0 0 0 0
11-10-2019 23 (15:00) 12.8 (00:00) 17.9 5.83 (04:40) 4.17 (04:40) 0 0 0 0 0
10-10-2019 20.8 (16:20) 13.9 (00:00) 17.3 4.72 (16:20) 2.5 (16:40) 0 0 0 0 0
09-10-2019 22.2 (12:40) 13.6 (00:00) 17.9 5 (15:20) 2.78 (15:20) 0 0 0 0 0
08-10-2019 25.2 (15:00) 14.1 (00:00) 19.7 3.61 (19:40) 2.22 (05:20) 0 0 0 0 0
07-10-2019 25.6 (15:00) 13.5 (00:00) 19.6 6.67 (11:00) 4.44 (10:30) 0 0 0 0 0
06-10-2019 22 (15:30) 14.5 (00:00) 18.3 5.28 (13:40) 3.33 (13:40) 0.2 0.2 0 0 0
05-10-2019 22.4 (14:40) 14.5 (00:00) 18.4 5.56 (13:30) 3.06 (16:10) 0 0 0 0 0
04-10-2019 26.8 (14:30) 14.5 (00:00) 20.6 11.67 (03:30) 4.72 (01:00) 0 0 0 0 0
03-10-2019 29.7 (13:20) 20.1 (00:00) 24.9 9.17 (22:30) 5.28 (02:20) 0 0 0 0 0
02-10-2019 34.1 (14:30) 21.7 (00:00) 27.9 8.06 (13:00) 6.39 (05:40) 0 0 0 0 0
01-10-2019 33.1 (17:00) 21.4 (00:00) 27.2 7.5 (05:00) 6.67 (04:50) 0 0 0 0 0
30-09-2019 33.7 (15:10) 21.2 (00:00) 27.5 7.22 (12:40) 5 (07:40) 0 0 0 0 0
29-09-2019 31.8 (16:40) 13.7 (00:00) 22.7 7.5 (10:50) 5.28 (10:40) 0 0 0 0 0
28-09-2019 25.1 (14:50) 13.9 (00:00) 19.5 6.39 (10:10) 4.72 (10:20) 0 0 0 0 0
27-09-2019 22.6 (12:10) 14.8 (00:00) 18.7 5.28 (15:00) 3.06 (15:50) 0 0 0 0 0
26-09-2019 22.8 (15:50) 13.9 (00:00) 18.3 4.72 (01:30) 3.61 (01:30) 0 0 0 0 0
25-09-2019 24.5 (15:40) 13.7 (00:00) 19.1 4.17 (23:10) 2.78 (23:40) 0 0 0 0 0
24-09-2019 19.7 (17:00) 13.4 (00:00) 16.6 5 (12:30) 2.5 (12:30) 0.6 0 0.4 0.2 0
23-09-2019 20.7 (14:20) 14 (00:00) 17.4 5 (17:30) 2.78 (16:00) 0.6 0.4 0.2 0 0
22-09-2019 24.4 (14:20) 15.2 (00:00) 19.8 6.11 (15:00) 3.33 (15:10) 6.6 0 0 0 6.6

Gráficas

Temp. máximas Temp. mínimas Temp. medias Precipitaciones Rachas de viento máximas Velocidades máximas media en intervalos de 10 minutos

Datos horarios

Fecha y hora oficial Temperatura (ºC) Velocidad del viento (km/h) Dirección del viento Racha (km/h) Dirección de racha Precipitación (mm) Presión (hPa) Tendencia (hPa) Humedad (%)
2019-10-21 23:00:00 11.8 8 Norte 17 Norte 0 -- -- 95
2019-10-21 22:00:00 11.3 5 Norte 19 Norte 0 -- -- 93
2019-10-21 21:00:00 11.7 5 Norte 17 Norte 0 -- -- 94
2019-10-21 20:00:00 12.2 8 Norte 23 Norte 0 -- -- 94
2019-10-21 19:00:00 12.6 11 Norte 22 Norte 0 -- -- 91
2019-10-21 18:00:00 12.8 10 Norte 21 Norte 0 -- -- 93
2019-10-21 17:00:00 13.3 11 Norte 30 Norte 2 -- -- 92
2019-10-21 16:00:00 14.7 11 Norte 26 Norte 0 -- -- 89
2019-10-21 15:00:00 15.9 13 Norte 25 Norte 0 -- -- 82
2019-10-21 14:00:00 14.5 10 Noroeste 26 Norte 0 -- -- 94
2019-10-21 13:00:00 14.3 10 Norte 24 Norte 0 -- -- 97
2019-10-21 12:00:00 13.1 12 Norte 24 Norte 0.8 -- -- 98
2019-10-21 11:00:00 13.2 9 Norte 26 Norte 0 -- -- 97
2019-10-21 10:00:00 13.1 9 Norte 15 Norte 0 -- -- 98
2019-10-21 09:00:00 11.9 6 Norte 20 Norte 0 -- -- 100
2019-10-21 08:00:00 11.6 9 Norte 17 Norte 0 -- -- 100
2019-10-21 07:00:00 12.1 6 Norte 13 Norte 0.2 -- -- 100
2019-10-21 06:00:00 12.3 5 Norte 12 Norte 0.6 -- -- 100
2019-10-21 05:00:00 12 5 Oeste 13 Norte 0 -- -- 100
2019-10-21 04:00:00 12.5 7 Noroeste 20 Noroeste 0 -- -- 99
2019-10-21 03:00:00 13 9 Norte 20 Noroeste 0 -- -- 100
2019-10-21 02:00:00 13.3 11 Norte 20 Norte 0.2 -- -- 100
2019-10-21 01:00:00 13.3 8 Noroeste 14 Noroeste 0.2 -- -- 99
2019-10-21 00:00:00 13.4 8 Norte 19 Norte 0.2 -- -- 99
2019-10-20 23:00:00 13.7 6 Norte 25 Nordeste 1.2 -- -- 99
2019-10-20 22:00:00 13.7 8 Norte 23 Nordeste 2.6 -- -- 99
2019-10-20 21:00:00 13.6 6 Norte 23 Nordeste 1.8 -- -- 99
2019-10-20 20:00:00 14.1 8 Norte 25 Nordeste 2.6 -- -- 99
2019-10-20 19:00:00 14.4 6 Norte 24 Nordeste 5 -- -- 99
2019-10-20 18:00:00 14.9 9 Nordeste 23 Este 5.4 -- -- 98
2019-10-20 17:00:00 15.7 6 Este 27 Norte 3 -- -- 97
2019-10-20 16:00:00 16.1 8 Nordeste 22 Nordeste 2.8 -- -- 96
2019-10-20 15:00:00 17.9 8 Norte 15 Norte 0.2 -- -- 91
2019-10-20 14:00:00 20 6 Norte 19 Norte 0 -- -- 73
2019-10-20 13:00:00 19.6 8 Norte 20 Noroeste 0 -- -- 76
2019-10-20 12:00:00 20.7 5 Norte 15 Noroeste 0 -- -- 66
2019-10-20 11:00:00 17.8 8 Norte 20 Noroeste 0 -- -- 81
2019-10-20 10:00:00 15.9 5 Noroeste 13 Oeste 0 -- -- 94
2019-10-20 09:00:00 15.2 6 Oeste 15 Noroeste 0 -- -- 96
2019-10-20 08:00:00 14.8 4 Noroeste 14 Norte 0 -- -- 96
2019-10-20 07:00:00 14.5 3 Oeste 8 Oeste 0 -- -- 95
2019-10-20 06:00:00 14.4 7 Oeste 13 Oeste 0 -- -- 92
2019-10-20 05:00:00 13.8 4 Sudoeste 12 Oeste 0 -- -- 94
2019-10-20 04:00:00 13.3 5 Oeste 12 Oeste 0 -- -- 94
2019-10-20 03:00:00 14.1 5 Oeste 11 Norte 0 -- -- 96
2019-10-20 02:00:00 14.8 6 Norte 12 Norte 0 -- -- 96
2019-10-20 01:00:00 14.7 4 Sudoeste 9 Norte 0 -- -- 96
2019-10-20 00:00:00 14.8 5 Noroeste 13 Oeste 0 -- -- 95
2019-10-19 23:00:00 14.8 6 Oeste 9 Oeste 0 -- -- 95
2019-10-19 22:00:00 15.1 4 Noroeste 17 Noroeste 0 -- -- 92
2019-10-19 21:00:00 15 5 Oeste 11 Noroeste 0 -- -- 92
2019-10-19 20:00:00 14.6 7 Oeste 12 Noroeste 0 -- -- 92
2019-10-19 19:00:00 17.1 8 Noroeste 12 Norte 0 -- -- 80
2019-10-19 18:00:00 19.3 5 Noroeste 17 Norte 0 -- -- 70
2019-10-19 17:00:00 19.8 8 Noroeste 20 Noroeste 0 -- -- 71
2019-10-19 16:00:00 19 10 Norte 23 Noroeste 0 -- -- 72
2019-10-19 15:00:00 19.8 7 Norte 20 Norte 0 -- -- 70
2019-10-19 14:00:00 19.4 10 Norte 21 Norte 0 -- -- 76
2019-10-19 13:00:00 19.6 9 Norte 17 Norte 0 -- -- 73
2019-10-19 12:00:00 17.7 4 Norte 13 Norte 0 -- -- 81
2019-10-19 11:00:00 16.8 6 Noroeste 13 Noroeste 0 -- -- 86
2019-10-19 10:00:00 15.2 5 Norte 12 Norte 0 -- -- 90
2019-10-19 09:00:00 14 4 Norte 6 Norte 0 -- -- 96
2019-10-19 08:00:00 13.9 3 Norte 13 Norte 0 -- -- 97
2019-10-19 07:00:00 14.4 5 Norte 13 Norte 0 -- -- 97
2019-10-19 06:00:00 14.8 6 Noroeste 12 Nordeste 0 -- -- 96
2019-10-19 05:00:00 14.3 4 Sudoeste 9 Sur 0 -- -- 93
2019-10-19 04:00:00 13.8 3 Este 8 Nordeste 0 -- -- 94
2019-10-19 03:00:00 14.1 6 Nordeste 10 Nordeste 0 -- -- 94
2019-10-19 02:00:00 14 0 Calma 12 Nordeste 0 -- -- 94
2019-10-19 01:00:00 13.8 3 Nordeste 7 Norte 0 -- -- 95
2019-10-19 00:00:00 14.1 3 Norte 11 Nordeste 0 -- -- 94
2019-10-18 23:00:00 13.8 4 Norte 12 Norte 0 -- -- 94
2019-10-18 22:00:00 13.5 4 Nordeste 10 Nordeste 0 -- -- 94
2019-10-18 21:00:00 13.9 0 Calma 8 Nordeste 0 -- -- 94
2019-10-18 20:00:00 14 4 Norte 8 Norte 0 -- -- 93
2019-10-18 19:00:00 15.4 5 Norte 12 Norte 0 -- -- 87
2019-10-18 18:00:00 17 6 Norte 16 Noroeste 0 -- -- 80
2019-10-18 17:00:00 17.2 7 Norte 18 Norte 0 -- -- 81
2019-10-18 16:00:00 19.1 10 Norte 20 Noroeste 0 -- -- 70
2019-10-18 15:00:00 19.3 8 Norte 18 Norte 0 -- -- 70
2019-10-18 14:00:00 18.8 10 Norte 19 Oeste 0 -- -- 69
2019-10-18 13:00:00 18.9 10 Norte 18 Norte 0 -- -- 71
2019-10-18 12:00:00 18.4 7 Norte 15 Norte 0 -- -- 73
2019-10-18 11:00:00 16 4 Norte 9 Norte 0 -- -- 85
2019-10-18 10:00:00 14.8 5 Noroeste 14 Nordeste 0 -- -- 92
2019-10-18 09:00:00 14.2 3 Norte 8 Noroeste 0 -- -- 95
2019-10-18 08:00:00 13.6 4 Noroeste 10 Noroeste 0 -- -- 95
2019-10-18 07:00:00 13.9 3 Norte 12 Sudoeste 0 -- -- 92
2019-10-18 06:00:00 13.5 6 Sur 11 Sudoeste 0 -- -- 89
2019-10-18 05:00:00 12.7 5 Sur 12 Sudoeste 0 -- -- 92
2019-10-18 04:00:00 13.2 3 Norte 9 Sur 0 -- -- 92
2019-10-18 03:00:00 12.8 3 Sur 10 Sudoeste 0 -- -- 96
2019-10-18 02:00:00 12.6 4 Oeste 10 Noroeste 0 -- -- 95
2019-10-18 01:00:00 12.4 4 Nordeste 10 Norte 0 -- -- 93
2019-10-18 00:00:00 13.1 5 Nordeste 12 Nordeste 0 -- -- 94
2019-10-17 23:00:00 13.6 6 Sudeste 15 Nordeste 0 -- -- 95
2019-10-17 22:00:00 13.1 3 Sudeste 11 Este 0 -- -- 94
2019-10-17 21:00:00 12.7 7 Sudeste 15 Este 0 -- -- 93
2019-10-17 20:00:00 13 6 Sudeste 14 Sudeste 0 -- -- 90
2019-10-17 19:00:00 14.5 8 Este 15 Sudeste 0 -- -- 82
2019-10-17 18:00:00 17.2 9 Este 21 Este 0 -- -- 70
2019-10-17 17:00:00 18.9 7 Este 15 Este 0 -- -- 56
2019-10-17 16:00:00 19 9 Norte 20 Noroeste 0 -- -- 65
2019-10-17 15:00:00 19.3 10 Norte 18 Noroeste 0 -- -- 64
2019-10-17 14:00:00 18.5 8 Este 18 Nordeste 0 -- -- 69
2019-10-17 13:00:00 19.6 5 Nordeste 20 Este 0 -- -- 72
2019-10-17 12:00:00 17.7 8 Sudeste 13 Sudeste 0 -- -- 75
2019-10-17 11:00:00 14.7 4 Norte 11 Norte 0 -- -- 93
2019-10-17 10:00:00 13.4 4 Norte 10 Norte 0 -- -- 98
2019-10-17 09:00:00 13.2 4 Norte 7 Norte 0 -- -- 99
2019-10-17 08:00:00 12.9 0 Calma 6 Este 0 -- -- 100
2019-10-17 07:00:00 12.9 3 Sudeste 5 Nordeste 0 -- -- 99
2019-10-17 06:00:00 12.6 4 Sudeste 11 Nordeste 0 -- -- 100
2019-10-17 05:00:00 13 3 Este 11 Este 0 -- -- 100
2019-10-17 04:00:00 12.8 7 Nordeste 17 Este 0 -- -- 99
2019-10-17 03:00:00 13.4 4 Este 11 Este 0 -- -- 100
2019-10-17 02:00:00 13.5 4 Este 16 Este 0.2 -- -- 100
2019-10-17 01:00:00 13.9 7 Este 13 Sudeste 0 -- -- 99
2019-10-17 00:00:00 13.9 8 Sudeste 15 Sudeste 0 -- -- 99
2019-10-16 23:00:00 14 11 Este 18 Este 0 -- -- 99
2019-10-16 22:00:00 14.1 6 Este 15 Este 0 -- -- 99
2019-10-16 21:00:00 14 5 Sudeste 15 Sudeste 0 -- -- 99
2019-10-16 20:00:00 13.5 7 Sudeste 16 Este 0 -- -- 99
2019-10-16 19:00:00 14.1 12 Sudeste 18 Sudeste 0 -- -- 99
2019-10-16 18:00:00 14.1 11 Sudeste 16 Sudeste 0 -- -- 99
2019-10-16 17:00:00 14.2 9 Sudeste 21 Sudeste 0 -- -- 99
2019-10-16 16:00:00 13.9 10 Este 21 Este 0.2 -- -- 99
2019-10-16 15:00:00 14.4 10 Este 19 Este 0 -- -- 98
2019-10-16 14:00:00 14.8 9 Este 16 Este 0.2 -- -- 99
2019-10-16 13:00:00 14.5 9 Este 16 Este 0 -- -- 99
2019-10-16 12:00:00 14.6 10 Este 18 Este 0 -- -- 99
2019-10-16 11:00:00 14.3 7 Sudeste 17 Sur 0 -- -- 99
2019-10-16 10:00:00 14 10 Este 16 Este 0 -- -- 100
2019-10-16 09:00:00 13.7 7 Sudeste 15 Sudeste 0 -- -- 100
2019-10-16 08:00:00 13.2 10 Sudeste 18 Sudeste 0 -- -- 100
2019-10-16 07:00:00 13 12 Sudeste 17 Sudeste 0 -- -- 100
2019-10-16 06:00:00 13.4 10 Sudeste 21 Sudeste 0 -- -- 99
2019-10-16 05:00:00 13.5 10 Sudeste 21 Este 0 -- -- 99
2019-10-16 04:00:00 13.6 9 Este 19 Este 0.2 -- -- 99
2019-10-16 03:00:00 13.8 11 Sudeste 22 Este 0 -- -- 99
2019-10-16 02:00:00 13.9 11 Sudeste 19 Sudeste 0 -- -- 99
2019-10-16 01:00:00 13.9 13 Sudeste 22 Sudeste 0 -- -- 99
2019-10-16 00:00:00 13.8 13 Sudeste 21 Sudeste 0 -- -- 99
2019-10-15 23:00:00 13.7 13 Sudeste 20 Sudeste 0 -- -- 98
2019-10-15 22:00:00 13.6 9 Sudeste 19 Sudeste 0 -- -- 97
2019-10-15 21:00:00 13.5 11 Sudeste 22 Sudeste 0 -- -- 97
2019-10-15 20:00:00 13.4 9 Sudeste 17 Este 0 -- -- 94
2019-10-15 19:00:00 13.5 7 Este 13 Este 0 -- -- 93
2019-10-15 18:00:00 14.4 4 Este 14 Sudeste 0 -- -- 95
2019-10-15 17:00:00 14.7 3 Este 11 Este 0 -- -- 96
2019-10-15 16:00:00 14.1 4 Nordeste 17 Este 0.2 -- -- 98
2019-10-15 15:00:00 14.6 12 Este 23 Este 0 -- -- 97
2019-10-15 14:00:00 14.7 11 Este 21 Este 0 -- -- 97
2019-10-15 13:00:00 15.1 9 Este 17 Este 0 -- -- 95
2019-10-15 12:00:00 14.9 7 Este 13 Este 0 -- -- 98
2019-10-15 11:00:00 14.4 6 Sudeste 14 Sudeste 0 -- -- 99
2019-10-15 10:00:00 13.5 10 Este 17 Sudeste 0 -- -- 99
2019-10-15 09:00:00 13.3 7 Sudeste 18 Este 0.2 -- -- 99
2019-10-15 08:00:00 12.9 9 Sudeste 20 Sudeste 0.4 -- -- 98
2019-10-15 07:00:00 13.5 13 Este 21 Este 0 -- -- 97
2019-10-15 06:00:00 13.5 7 Este 16 Sudeste 0.2 -- -- 98
2019-10-15 05:00:00 13.2 9 Sudeste 12 Sudeste 0 -- -- 96
2019-10-15 04:00:00 13.1 6 Este 10 Sudeste 0 -- -- 95
2019-10-15 03:00:00 13 5 Sur 10 Sudeste 0 -- -- 95
2019-10-15 02:00:00 13 5 Este 10 Sudeste 0 -- -- 94
2019-10-15 01:00:00 12.8 7 Sudeste 11 Este 0 -- -- 95
2019-10-15 00:00:00 13.4 8 Este 13 Sudeste 0 -- -- 93
2019-10-14 23:00:00 12.3 6 Sudeste 12 Este 0 -- -- 85
2019-10-14 22:00:00 12.8 6 Este 10 Este 0 -- -- 82
2019-10-14 21:00:00 12.9 2 Sudeste 8 Sudeste 0 -- -- 91
2019-10-14 20:00:00 13.1 5 Este 9 Noroeste 0 -- -- 85
2019-10-14 19:00:00 17.4 5 Sudoeste 12 Sur 0 -- -- 65
2019-10-14 18:00:00 15.4 6 Norte 13 Norte 0 -- -- 92
2019-10-14 17:00:00 15.4 3 Nordeste 15 Norte 0 -- -- 90
2019-10-14 16:00:00 15.8 5 Norte 15 Norte 0 -- -- 89
2019-10-14 15:00:00 16.3 6 Norte 14 Norte 0 -- -- 88
2019-10-14 14:00:00 16 9 Norte 16 Norte 0 -- -- 90
2019-10-14 13:00:00 16.2 3 Este 17 Nordeste 0 -- -- 94
2019-10-14 12:00:00 16.3 5 Este 11 Sudeste 0 -- -- 94
2019-10-14 11:00:00 15.1 5 Este 11 Este 0.2 -- -- 97
2019-10-14 10:00:00 14.8 3 Norte 10 Noroeste 0 -- -- 98
2019-10-14 09:00:00 14.5 6 Norte 14 Norte 0.8 -- -- 98
2019-10-14 08:00:00 14.4 2 Nordeste 8 Nordeste 0.6 -- -- 97
2019-10-14 07:00:00 14.2 3 Noroeste 10 Sur 0.6 -- -- 96
2019-10-14 06:00:00 14.1 8 Sur 13 Sur 0 -- -- 93
2019-10-14 05:00:00 14.2 3 Oeste 11 Oeste 0 -- -- 93
2019-10-14 04:00:00 14.2 5 Oeste 17 Oeste 0 -- -- 92
2019-10-14 03:00:00 13.9 5 Oeste 13 Oeste 0 -- -- 92
2019-10-14 02:00:00 13.5 7 Oeste 13 Oeste 0 -- -- 90
2019-10-14 01:00:00 13 7 Oeste 10 Oeste 0 -- -- 91
2019-10-14 00:00:00 13.2 6 Noroeste 9 Oeste 0 -- -- 90
2019-10-13 23:00:00 13.9 8 Oeste 11 Oeste 0 -- -- 85
2019-10-13 22:00:00 13.6 5 Oeste 15 Oeste 0 -- -- 84
2019-10-13 21:00:00 14.1 8 Oeste 14 Oeste 0 -- -- 83
2019-10-13 20:00:00 14.4 7 Noroeste 12 Noroeste 0 -- -- 84
2019-10-13 19:00:00 17.2 8 Noroeste 15 Noroeste 0 -- -- 71
2019-10-13 18:00:00 18.1 9 Oeste 15 Norte 0 -- -- 70
2019-10-13 17:00:00 18.1 8 Noroeste 14 Noroeste 0 -- -- 70
2019-10-13 16:00:00 19.5 8 Noroeste 18 Noroeste 0 -- -- 65
2019-10-13 15:00:00 19.2 6 Norte 16 Noroeste 0 -- -- 68
2019-10-13 14:00:00 20.1 6 Norte 17 Noroeste 0 -- -- 64
2019-10-13 13:00:00 19.9 8 Norte 14 Norte 0 -- -- 65
2019-10-13 12:00:00 18.4 4 Noroeste 12 Norte 0 -- -- 73
2019-10-13 11:00:00 18.5 6 Norte 12 Norte 0 -- -- 72
2019-10-13 10:00:00 15.4 4 Noroeste 9 Norte 0 -- -- 84
2019-10-13 09:00:00 13.1 3 Oeste 8 Sudoeste 0 -- -- 93
2019-10-13 08:00:00 12.7 5 Oeste 8 Noroeste 0 -- -- 95
2019-10-13 07:00:00 12.9 5 Noroeste 9 Oeste 0 -- -- 95
2019-10-13 06:00:00 12.3 7 Noroeste 11 Oeste 0 -- -- 96
2019-10-13 05:00:00 12.1 5 Sur 9 Sudeste 0 -- -- 97
2019-10-13 04:00:00 12.5 3 Sur 9 Este 0 -- -- 97
2019-10-13 03:00:00 12.4 5 Sudeste 8 Sudeste 0 -- -- 96
2019-10-13 02:00:00 12.9 3 Sudeste 9 Este 0 -- -- 97
2019-10-13 01:00:00 12.6 3 Sudeste 5 Sur 0 -- -- 96
2019-10-13 00:00:00 13.6 0 Calma 5 Este 0 -- -- 94
2019-10-12 23:00:00 14.2 2 Este 7 Oeste 0 -- -- 95
2019-10-12 22:00:00 14.4 6 Noroeste 11 Noroeste 0 -- -- 95
2019-10-12 21:00:00 14.9 5 Noroeste 10 Noroeste 0 -- -- 95
2019-10-12 20:00:00 15.2 6 Noroeste 11 Noroeste 0 -- -- 94
2019-10-12 19:00:00 15.6 6 Noroeste 19 Norte 0 -- -- 92
2019-10-12 18:00:00 16.2 9 Noroeste 18 Noroeste 0 -- -- 88
2019-10-12 17:00:00 17.1 9 Noroeste 16 Noroeste 0 -- -- 82
2019-10-12 16:00:00 19.6 10 Norte 17 Norte 0 -- -- 73
2019-10-12 15:00:00 19.7 7 Norte 13 Nordeste 0 -- -- 68
2019-10-12 14:00:00 18.5 3 Nordeste 17 Este 0 -- -- 73
2019-10-12 13:00:00 17.9 7 Este 17 Este 0 -- -- 79
2019-10-12 12:00:00 19.8 8 Este 17 Este 0 -- -- 72
2019-10-12 11:00:00 16.7 6 Sudeste 10 Sudeste 0 -- -- 85
2019-10-12 10:00:00 15 3 Norte 12 Norte 0 -- -- 92
2019-10-12 09:00:00 14.9 6 Norte 10 Noroeste 0 -- -- 90
2019-10-12 08:00:00 14.3 3 Sudeste 7 Sur 0 -- -- 89
2019-10-12 07:00:00 13.7 4 Sur 13 Oeste 0 -- -- 90
2019-10-12 06:00:00 13.9 4 Oeste 10 Oeste 0 -- -- 96
2019-10-12 05:00:00 14.4 5 Noroeste 13 Noroeste 0 -- -- 96
2019-10-12 04:00:00 14.5 6 Noroeste 12 Norte 0 -- -- 95
2019-10-12 03:00:00 14.5 6 Oeste 12 Sudoeste 0 -- -- 90
2019-10-12 02:00:00 14.4 6 Oeste 12 Oeste 0 -- -- 92
2019-10-12 01:00:00 14 5 Oeste 14 Oeste 0 -- -- 92
2019-10-12 00:00:00 13.9 9 Oeste 15 Oeste 0 -- -- 92
2019-10-11 23:00:00 14.5 8 Noroeste 18 Noroeste 0 -- -- 93
2019-10-11 22:00:00 14.6 8 Oeste 13 Oeste 0 -- -- 89
2019-10-11 21:00:00 14.7 6 Noroeste 18 Noroeste 0 -- -- 93
2019-10-11 20:00:00 15.5 9 Noroeste 19 Norte 0 -- -- 90
2019-10-11 19:00:00 16.1 10 Noroeste 16 Norte 0 -- -- 85
2019-10-11 18:00:00 17.3 9 Noroeste 19 Noroeste 0 -- -- 78
2019-10-11 17:00:00 18.3 10 Norte 19 Norte 0 -- -- 75
2019-10-11 16:00:00 18.4 10 Noroeste 20 Noroeste 0 -- -- 74
2019-10-11 15:00:00 23 12 Noroeste 20 Noroeste 0 -- -- 57
2019-10-11 14:00:00 20.6 12 Noroeste 20 Noroeste 0 -- -- 59
2019-10-11 13:00:00 20.3 10 Norte 19 Norte 0 -- -- 62
2019-10-11 12:00:00 20 10 Norte 20 Norte 0 -- -- 61
2019-10-11 11:00:00 19.7 8 Norte 18 Norte 0 -- -- 66
2019-10-11 10:00:00 16.2 6 Norte 17 Oeste 0 -- -- 78
2019-10-11 09:00:00 14 10 Noroeste 16 Noroeste 0 -- -- 84
2019-10-11 08:00:00 13.4 10 Oeste 16 Oeste 0 -- -- 88
2019-10-11 07:00:00 13.1 9 Oeste 17 Oeste 0 -- -- 90
2019-10-11 06:00:00 13.1 12 Oeste 21 Oeste 0 -- -- 91
2019-10-11 05:00:00 13.2 14 Oeste 21 Oeste 0 -- -- 88
2019-10-11 04:00:00 12.9 11 Oeste 16 Noroeste 0 -- -- 91
2019-10-11 03:00:00 13 11 Oeste 18 Oeste 0 -- -- 93
2019-10-11 02:00:00 13.1 8 Oeste 14 Oeste 0 -- -- 94
2019-10-11 01:00:00 13.2 9 Oeste 12 Oeste 0 -- -- 97
2019-10-11 00:00:00 14.5 6 Noroeste 10 Noroeste 0 -- -- 97
2019-10-10 23:00:00 15.1 2 Norte 9 Noroeste 0 -- -- 97
2019-10-10 22:00:00 15.2 7 Norte 12 Noroeste 0 -- -- 96
2019-10-10 21:00:00 15.3 5 Norte 12 Noroeste 0 -- -- 96
2019-10-10 20:00:00 15.6 2 Norte 10 Nordeste 0 -- -- 94
2019-10-10 19:00:00 16.6 0 Calma 11 Noroeste 0 -- -- 90
2019-10-10 18:00:00 17.1 7 Norte 15 Noroeste 0 -- -- 85
2019-10-10 17:00:00 19.4 9 Norte 17 Noroeste 0 -- -- 75
2019-10-10 16:00:00 19.6 6 Norte 15 Norte 0 -- -- 69
2019-10-10 15:00:00 18.5 6 Norte 16 Norte 0 -- -- 73
2019-10-10 14:00:00 18.7 7 Norte 14 Norte 0 -- -- 75
2019-10-10 13:00:00 17.9 4 Norte 14 Sudeste 0 -- -- 82
2019-10-10 12:00:00 18.3 3 Nordeste 13 Nordeste 0 -- -- 82
2019-10-10 11:00:00 17.1 6 Norte 13 Noroeste 0 -- -- 84
2019-10-10 10:00:00 16.4 6 Norte 10 Norte 0 -- -- 86
2019-10-10 09:00:00 15.2 0 Calma 10 Nordeste 0 -- -- 90
2019-10-10 08:00:00 13.9 2 Nordeste 8 Este 0 -- -- 93
2019-10-10 07:00:00 14.4 4 Noroeste 10 Noroeste 0 -- -- 94
2019-10-10 06:00:00 14.4 2 Norte 8 Nordeste 0 -- -- 93
2019-10-10 05:00:00 14.1 2 Norte 10 Este 0 -- -- 92
2019-10-10 04:00:00 14.5 2 Este 8 Nordeste 0 -- -- 92
2019-10-10 03:00:00 14.6 2 Sudeste 9 Nordeste 0 -- -- 92
2019-10-10 02:00:00 13.9 5 Sudeste 12 Este 0 -- -- 92
2019-10-10 01:00:00 14.9 3 Norte 8 Este 0 -- -- 91
2019-10-10 00:00:00 15.1 2 Nordeste 8 Noroeste 0 -- -- 89
2019-10-09 23:00:00 15 3 Noroeste 13 Noroeste 0 -- -- 90
2019-10-09 22:00:00 15 4 Noroeste 12 Noroeste 0 -- -- 89
2019-10-09 21:00:00 15 5 Noroeste 12 Oeste 0 -- -- 89
2019-10-09 20:00:00 15.5 4 Noroeste 14 Norte 0 -- -- 90
2019-10-09 19:00:00 16.4 8 Norte 16 Norte 0 -- -- 84
2019-10-09 18:00:00 19.3 9 Norte 14 Noroeste 0 -- -- 73
2019-10-09 17:00:00 20.4 7 Norte 16 Norte 0 -- -- 68
2019-10-09 16:00:00 20.3 10 Norte 18 Noroeste 0 -- -- 69
2019-10-09 15:00:00 20.7 8 Noroeste 15 Norte 0 -- -- 67
2019-10-09 14:00:00 21 5 Noroeste 13 Noroeste 0 -- -- 66
2019-10-09 13:00:00 21 8 Norte 14 Norte 0 -- -- 65
2019-10-09 12:00:00 20.3 5 Noroeste 10 Norte 0 -- -- 71
2019-10-09 11:00:00 18.4 4 Norte 10 Norte 0 -- -- 77
2019-10-09 10:00:00 15.5 5 Norte 10 Norte 0 -- -- 90
2019-10-09 09:00:00 14.2 5 Norte 10 Norte 0 -- -- 96
2019-10-09 08:00:00 13.6 5 Noroeste 10 Norte 0 -- -- 96
2019-10-09 07:00:00 13.6 4 Noroeste 8 Noroeste 0 -- -- 96
2019-10-09 06:00:00 13.8 4 Oeste 12 Noroeste 0 -- -- 96
2019-10-09 05:00:00 13.9 6 Noroeste 12 Norte 0 -- -- 96
2019-10-09 04:00:00 13.9 5 Noroeste 11 Noroeste 0 -- -- 96
2019-10-09 03:00:00 13.8 5 Norte 10 Norte 0 -- -- 95
2019-10-09 02:00:00 13.7 5 Norte 8 Norte 0 -- -- 95
2019-10-09 01:00:00 14.7 5 Oeste 8 Noroeste 0 -- -- 83
2019-10-09 00:00:00 17.9 5 Sudeste 6 Sudeste 0 -- -- 19
2019-10-08 23:00:00 18.5 0 Calma 5 Noroeste 0 -- -- 21
2019-10-08 22:00:00 18.1 4 Sudoeste 7 Nordeste 0 -- -- 21
2019-10-08 21:00:00 18.5 2 Este 6 Nordeste 0 -- -- 23
2019-10-08 20:00:00 18.3 0 Calma 13 Nordeste 0 -- -- 27
2019-10-08 19:00:00 20.4 2 Sudeste 7 Norte 0 -- -- 72
2019-10-08 18:00:00 21.9 4 Norte 9 Noroeste 0 -- -- 69
2019-10-08 17:00:00 22.2 6 Norte 9 Noroeste 0 -- -- 68
2019-10-08 16:00:00 24.6 3 Sudeste 9 Este 0 -- -- 59
2019-10-08 15:00:00 25.2 5 Sudeste 12 Sur 0 -- -- 57
2019-10-08 14:00:00 23.9 4 Norte 9 Sudeste 0 -- -- 63
2019-10-08 13:00:00 24.1 5 Este 11 Este 0 -- -- 61
2019-10-08 12:00:00 23.1 5 Este 10 Este 0 -- -- 63
2019-10-08 11:00:00 18.9 4 Noroeste 6 Norte 0 -- -- 81
2019-10-08 10:00:00 16 2 Norte 9 Norte 0 -- -- 95
2019-10-08 09:00:00 15 3 Norte 9 Noroeste 0 -- -- 96
2019-10-08 08:00:00 14.4 4 Norte 7 Norte 0 -- -- 91
2019-10-08 07:00:00 18.3 3 Noroeste 9 Noroeste 0 -- -- 45
2019-10-08 06:00:00 16.3 6 Oeste 12 Noroeste 0 -- -- 46
2019-10-08 05:00:00 16.7 4 Oeste 12 Oeste 0 -- -- 49
2019-10-08 04:00:00 15.8 4 Oeste 7 Sudoeste 0 -- -- 76
2019-10-08 03:00:00 18.6 5 Oeste 8 Noroeste 0 -- -- 44
2019-10-08 02:00:00 20.8 2 Noroeste 5 Norte 0 -- -- 44
2019-10-08 01:00:00 17.3 3 Sudoeste 6 Sur 0 -- -- 54
2019-10-08 00:00:00 15.1 3 Noroeste 10 Norte 0 -- -- 97
2019-10-07 23:00:00 15.3 6 Noroeste 10 Norte 0 -- -- 97
2019-10-07 22:00:00 15.5 6 Noroeste 10 Norte 0 -- -- 96
2019-10-07 21:00:00 15.7 5 Oeste 11 Noroeste 0 -- -- 95
2019-10-07 20:00:00 16.5 5 Noroeste 9 Noroeste 0 -- -- 93
2019-10-07 19:00:00 18.4 5 Noroeste 12 Noroeste 0 -- -- 86
2019-10-07 18:00:00 21 8 Noroeste 14 Noroeste 0 -- -- 75
2019-10-07 17:00:00 23.2 5 Norte 12 Oeste 0 -- -- 67
2019-10-07 16:00:00 25 4 Nordeste 15 Este 0 -- -- 62
2019-10-07 15:00:00 25.6 4 Este 17 Este 0 -- -- 56
2019-10-07 14:00:00 25.2 4 Sudeste 14 Este 0 -- -- 57
2019-10-07 13:00:00 24.7 5 Este 16 Este 0 -- -- 58
2019-10-07 12:00:00 22.7 7 Este 21 Sudeste 0 -- -- 65
2019-10-07 11:00:00 19.4 13 Sudeste 24 Este 0 -- -- 80
2019-10-07 10:00:00 15.5 11 Sudeste 21 Este 0 -- -- 98
2019-10-07 09:00:00 14.6 11 Sudeste 18 Sudeste 0 -- -- 99
2019-10-07 08:00:00 14.4 6 Este 14 Este 0 -- -- 99
2019-10-07 07:00:00 14.2 4 Sudeste 12 Este 0 -- -- 99
2019-10-07 06:00:00 14 8 Este 14 Sudeste 0 -- -- 99
2019-10-07 05:00:00 14.2 8 Sudeste 16 Este 0 -- -- 98
2019-10-07 04:00:00 13.7 3 Este 9 Este 0 -- -- 98
2019-10-07 03:00:00 13.7 4 Este 9 Este 0 -- -- 98
2019-10-07 02:00:00 14.3 5 Nordeste 10 Nordeste 0 -- -- 97
2019-10-07 01:00:00 14.4 0 Calma 8 Nordeste 0 -- -- 96
2019-10-07 00:00:00 14.6 4 Nordeste 10 Nordeste 0 -- -- 96
2019-10-06 23:00:00 14.8 3 Nordeste 10 Norte 0 -- -- 95
2019-10-06 22:00:00 14.9 2 Nordeste 9 Nordeste 0 -- -- 95
2019-10-06 21:00:00 15.1 5 Nordeste 10 Nordeste 0 -- -- 94
2019-10-06 20:00:00 15.6 2 Nordeste 13 Nordeste 0 -- -- 93
2019-10-06 19:00:00 15.8 6 Nordeste 13 Nordeste 0 -- -- 90
2019-10-06 18:00:00 18.1 3 Nordeste 10 Norte 0 -- -- 82
2019-10-06 17:00:00 18.5 5 Norte 12 Norte 0 -- -- 80
2019-10-06 16:00:00 20.6 4 Nordeste 15 Este 0 -- -- 74
2019-10-06 15:00:00 20.1 5 Este 14 Este 0 -- -- 75
2019-10-06 14:00:00 19 5 Nordeste 19 Este 0 -- -- 79
2019-10-06 13:00:00 19.4 6 Nordeste 16 Este 0 -- -- 76
2019-10-06 12:00:00 17.8 6 Este 15 Este 0 -- -- 83
2019-10-06 11:00:00 16.3 6 Este 13 Norte 0 -- -- 91
2019-10-06 10:00:00 15.6 8 Este 13 Este 0 -- -- 92
2019-10-06 09:00:00 15 5 Este 14 Nordeste 0 -- -- 95
2019-10-06 08:00:00 14.7 2 Nordeste 13 Sudeste 0 -- -- 96
2019-10-06 07:00:00 14.7 5 Este 12 Sudeste 0 -- -- 97
2019-10-06 06:00:00 14.9 8 Este 14 Este 0.2 -- -- 97
2019-10-06 05:00:00 15.1 5 Este 14 Norte 0 -- -- 97
2019-10-06 04:00:00 15.2 4 Sudeste 18 Nordeste 0 -- -- 95
2019-10-06 03:00:00 15.2 3 Este 16 Sudoeste 0 -- -- 95
2019-10-06 02:00:00 15.3 4 Sudeste 17 Sur 0 -- -- 94
2019-10-06 01:00:00 15 5 Este 14 Este 0 -- -- 93
2019-10-06 00:00:00 15.1 9 Este 20 Este 0 -- -- 93
2019-10-05 23:00:00 15.1 5 Nordeste 12 Este 0 -- -- 89
2019-10-05 22:00:00 15.5 2 Oeste 10 Noroeste 0 -- -- 90
2019-10-05 21:00:00 15.9 2 Oeste 12 Norte 0 -- -- 90
2019-10-05 20:00:00 16.4 5 Noroeste 11 Norte 0 -- -- 89
2019-10-05 19:00:00 19.2 6 Norte 16 Norte 0 -- -- 76
2019-10-05 18:00:00 19.6 5 Este 18 Norte 0 -- -- 75
2019-10-05 17:00:00 21.7 8 Norte 19 Noroeste 0 -- -- 68
2019-10-05 16:00:00 21.6 9 Norte 20 Nordeste 0 -- -- 70
2019-10-05 15:00:00 22.4 10 Norte 20 Norte 0 -- -- 67
2019-10-05 14:00:00 20.7 6 Norte 20 Este 0 -- -- 74
2019-10-05 13:00:00 21.4 6 Norte 16 Este 0 -- -- 73
2019-10-05 12:00:00 20.2 5 Este 15 Este 0 -- -- 76
2019-10-05 11:00:00 19.3 5 Este 18 Nordeste 0 -- -- 81
2019-10-05 10:00:00 16.8 5 Este 18 Sudeste 0 -- -- 93
2019-10-05 09:00:00 16 5 Este 17 Norte 0 -- -- 95
2019-10-05 08:00:00 15.8 3 Nordeste 12 Nordeste 0 -- -- 94
2019-10-05 07:00:00 15.6 4 Este 12 Sudeste 0 -- -- 95
2019-10-05 06:00:00 15.3 3 Sudeste 15 Nordeste 0 -- -- 94
2019-10-05 05:00:00 15 4 Oeste 13 Norte 0 -- -- 95
2019-10-05 04:00:00 14.9 4 Sur 10 Oeste 0 -- -- 95
2019-10-05 03:00:00 14.6 2 Este 15 Norte 0 -- -- 94
2019-10-05 02:00:00 14.6 2 Este 8 Oeste 0 -- -- 94
2019-10-05 01:00:00 14.7 3 Norte 8 Sudeste 0 -- -- 89
2019-10-05 00:00:00 14.5 3 Noroeste 10 Noroeste 0 -- -- 92
2019-10-04 23:00:00 15 5 Noroeste 10 Norte 0 -- -- 82
2019-10-04 22:00:00 14.9 5 Noroeste 9 Norte 0 -- -- 92
2019-10-04 21:00:00 17.5 5 Noroeste 9 Nordeste 0 -- -- 74
2019-10-04 20:00:00 16 3 Oeste 8 Oeste 0 -- -- 89
2019-10-04 19:00:00 19.6 4 Noroeste 10 Noroeste 0 -- -- 78
2019-10-04 18:00:00 23 4 Norte 8 Noroeste 0 -- -- 65
2019-10-04 17:00:00 23.3 6 Norte 10 Noroeste 0 -- -- 64
2019-10-04 16:00:00 26.1 5 Norte 11 Norte 0 -- -- 54
2019-10-04 15:00:00 25.4 6 Norte 13 Sudeste 0 -- -- 56
2019-10-04 14:00:00 25.2 5 Este 12 Sudeste 0 -- -- 52
2019-10-04 13:00:00 24.7 5 Norte 12 Norte 0 -- -- 55
2019-10-04 12:00:00 24.7 6 Nordeste 18 Nordeste 0 -- -- 40
2019-10-04 11:00:00 23.4 8 Nordeste 21 Norte 0 -- -- 53
2019-10-04 10:00:00 19.2 7 Noroeste 21 Este 0 -- -- 72
2019-10-04 09:00:00 17.1 9 Noroeste 26 Noroeste 0 -- -- 78
2019-10-04 08:00:00 17.3 9 Noroeste 21 Norte 0 -- -- 68
2019-10-04 07:00:00 17.7 8 Noroeste 20 Norte 0 -- -- 61
2019-10-04 06:00:00 16.1 7 Oeste 20 Nordeste 0 -- -- 76
2019-10-04 05:00:00 16.6 9 Oeste 26 Nordeste 0 -- -- 70
2019-10-04 04:00:00 21.4 12 Nordeste 42 Norte 0 -- -- 32
2019-10-04 03:00:00 22.1 13 Nordeste 32 Nordeste 0 -- -- 29
2019-10-04 02:00:00 21.7 14 Nordeste 31 Este 0 -- -- 32
2019-10-04 01:00:00 21.7 17 Nordeste 32 Nordeste 0 -- -- 36
2019-10-04 00:00:00 20.8 13 Nordeste 31 Este 0 -- -- 38
2019-10-03 23:00:00 21.2 8 Este 33 Este 0 -- -- 36
2019-10-03 22:00:00 21 7 Este 28 Este 0 -- -- 35
2019-10-03 21:00:00 21.3 7 Noroeste 21 Nordeste 0 -- -- 34
2019-10-03 20:00:00 21.6 7 Este 16 Nordeste 0 -- -- 39
2019-10-03 19:00:00 24.2 6 Noroeste 18 Norte 0 -- -- 38
2019-10-03 18:00:00 27.3 2 Nordeste 15 Nordeste 0 -- -- 34
2019-10-03 17:00:00 29.1 6 Nordeste 19 Este 0 -- -- 31
2019-10-03 16:00:00 28.6 8 Norte 20 Noroeste 0 -- -- 32
2019-10-03 15:00:00 28.9 4 Noroeste 14 Sudeste 0 -- -- 41
2019-10-03 14:00:00 28.6 6 Oeste 13 Sudeste 0 -- -- 34
2019-10-03 13:00:00 28.7 6 Nordeste 18 Este 0 -- -- 30
2019-10-03 12:00:00 28.3 8 Sudeste 19 Este 0 -- -- 30
2019-10-03 11:00:00 27.5 6 Este 18 Sudeste 0 -- -- 30
2019-10-03 10:00:00 25.5 8 Sudeste 15 Sudeste 0 -- -- 24
2019-10-03 09:00:00 22.4 8 Este 17 Este 0 -- -- 32
2019-10-03 08:00:00 20.7 11 Sudeste 19 Sudeste 0 -- -- 34
2019-10-03 07:00:00 20.1 13 Sudeste 19 Sudeste 0 -- -- 34
2019-10-03 06:00:00 20.8 13 Sudeste 17 Este 0 -- -- 38
2019-10-03 05:00:00 21 15 Sudeste 22 Sudeste 0 -- -- 38
2019-10-03 04:00:00 20.7 17 Sudeste 20 Sudeste 0 -- -- 41
2019-10-03 03:00:00 20.3 15 Sudeste 25 Sudeste 0 -- -- 32
2019-10-03 02:00:00 20.1 18 Sudeste 22 Sudeste 0 -- -- 40
2019-10-03 01:00:00 23.6 13 Este 17 Este 0 -- -- 13
2019-10-03 00:00:00 25.9 7 Sudeste 18 Sudeste 0 -- -- 11
2019-10-02 23:00:00 26.5 10 Este 22 Sudeste 0 -- -- 13
2019-10-02 22:00:00 26.7 8 Este 22 Sudeste 0 -- -- 12
2019-10-02 21:00:00 26.1 11 Sudeste 16 Sudeste 0 -- -- 13
2019-10-02 20:00:00 26.1 10 Sudeste 17 Sudeste 0 -- -- 15
2019-10-02 19:00:00 28.6 11 Sudeste 21 Este 0 -- -- 16
2019-10-02 18:00:00 30.8 13 Este 22 Este 0 -- -- 12
2019-10-02 17:00:00 32.6 14 Este 23 Este 0 -- -- 14
2019-10-02 16:00:00 32.9 16 Este 29 Este 0 -- -- 12
2019-10-02 15:00:00 33.2 17 Este 29 Este 0 -- -- 14
2019-10-02 14:00:00 33.5 18 Este 28 Este 0 -- -- 12
2019-10-02 13:00:00 33.2 18 Este 29 Este 0 -- -- 15
2019-10-02 12:00:00 32.8 15 Sudeste 26 Sudeste 0 -- -- 13
2019-10-02 11:00:00 30.9 15 Sudeste 26 Sudeste 0 -- -- 15
2019-10-02 10:00:00 27.7 18 Sudeste 24 Sudeste 0 -- -- 18
2019-10-02 09:00:00 25.4 17 Sudeste 21 Sudeste 0 -- -- 20
2019-10-02 08:00:00 23.2 14 Sudeste 22 Sudeste 0 -- -- 23
2019-10-02 07:00:00 22.7 16 Sudeste 24 Este 0 -- -- 25
2019-10-02 06:00:00 22.5 20 Sudeste 27 Este 0 -- -- 27
2019-10-02 05:00:00 21.7 21 Sudeste 25 Sudeste 0 -- -- 27
2019-10-02 04:00:00 21.9 22 Sudeste 24 Este 0 -- -- 28
2019-10-02 03:00:00 23.5 15 Sudeste 19 Sudeste 0 -- -- 24
2019-10-02 02:00:00 23.8 18 Sudeste 23 Este 0 -- -- 25
2019-10-02 01:00:00 25.3 17 Sudeste 22 Este 0 -- -- 21
2019-10-02 00:00:00 25.9 18 Sudeste 21 Este 0 -- -- 19
2019-10-01 23:00:00 25.6 19 Sudeste 24 Este 0 -- -- 21
2019-10-01 22:00:00 24.8 20 Sudeste 23 Este 0 -- -- 23
2019-10-01 21:00:00 24.9 16 Sudeste 20 Sudeste 0 -- -- 22
2019-10-01 20:00:00 24.2 17 Sudeste 20 Sudeste 0 -- -- 34
2019-10-01 19:00:00 27.3 13 Sudeste 18 Sudeste 0 -- -- 35
2019-10-01 18:00:00 28.6 13 Sudeste 22 Sudeste 0 -- -- 30
2019-10-01 17:00:00 33.1 13 Sudeste 20 Este 0 -- -- 21
2019-10-01 16:00:00 28.5 17 Sudeste 23 Sudeste 0 -- -- 33
2019-10-01 15:00:00 28.6 17 Sudeste 25 Sudeste 0 -- -- 32
2019-10-01 14:00:00 29.4 14 Sudeste 21 Este 0 -- -- 36
2019-10-01 13:00:00 29.6 16 Este 21 Sudeste 0 -- -- 37
2019-10-01 12:00:00 31.8 16 Sudeste 25 Este 0 -- -- 33
2019-10-01 11:00:00 32 16 Sudeste 22 Este 0 -- -- 17
2019-10-01 10:00:00 30.2 15 Sudeste 24 Sudeste 0 -- -- 17
2019-10-01 09:00:00 26.6 15 Sudeste 24 Sudeste 0 -- -- 21
2019-10-01 08:00:00 23.3 14 Sudeste 23 Este 0 -- -- 25
2019-10-01 07:00:00 23.4 16 Sudeste 20 Sudeste 0 -- -- 24
2019-10-01 06:00:00 22.6 15 Sudeste 26 Sudeste 0 -- -- 26
2019-10-01 05:00:00 23.2 23 Sudeste 27 Sudeste 0 -- -- 23
2019-10-01 04:00:00 21.8 17 Sudeste 26 Sudeste 0 -- -- 22
2019-10-01 03:00:00 21.6 19 Sudeste 23 Sudeste 0 -- -- 22
2019-10-01 02:00:00 21.7 14 Sudeste 22 Este 0 -- -- 20
2019-10-01 01:00:00 21.8 13 Este 25 Este 0 -- -- 26
2019-10-01 00:00:00 21.7 16 Sudeste 18 Sudeste 0 -- -- 32
2019-09-30 23:00:00 21.3 10 Este 17 Este 0 -- -- 33
2019-09-30 22:00:00 22.1 6 Este 13 Este 0 -- -- 26
2019-09-30 21:00:00 22 8 Este 13 Nordeste 0 -- -- 19
2019-09-30 20:00:00 24.9 3 Sudoeste 7 Oeste 0 -- -- 26
2019-09-30 19:00:00 27.5 4 Oeste 9 Noroeste 0 -- -- 39
2019-09-30 18:00:00 26.8 5 Norte 10 Norte 0 -- -- 58
2019-09-30 17:00:00 29.3 3 Este 12 Sudeste 0 -- -- 47
2019-09-30 16:00:00 31.2 4 Nordeste 14 Sudeste 0 -- -- 46
2019-09-30 15:00:00 32.5 6 Sudeste 21 Sudeste 0 -- -- 30
2019-09-30 14:00:00 32.5 13 Sudeste 20 Este 0 -- -- 22
2019-09-30 13:00:00 30.8 16 Este 26 Este 0 -- -- 20
2019-09-30 12:00:00 32 13 Sudeste 23 Sudeste 0 -- -- 20
2019-09-30 11:00:00 30.2 15 Sudeste 25 Este 0 -- -- 18
2019-09-30 10:00:00 27.7 16 Sudeste 22 Sudeste 0 -- -- 19
2019-09-30 09:00:00 23.8 17 Sudeste 21 Sudeste 0 -- -- 23
2019-09-30 08:00:00 22.9 16 Sudeste 22 Sudeste 0 -- -- 25
2019-09-30 07:00:00 22.4 14 Sudeste 22 Sudeste 0 -- -- 27
2019-09-30 06:00:00 22.5 14 Sudeste 20 Sudeste 0 -- -- 27
2019-09-30 05:00:00 22.9 18 Sudeste 21 Sudeste 0 -- -- 26
2019-09-30 04:00:00 23 13 Sudeste 22 Sudeste 0 -- -- 25
2019-09-30 03:00:00 22.6 17 Sudeste 22 Sudeste 0 -- -- 27
2019-09-30 02:00:00 22.4 14 Sudeste 23 Este 0 -- -- 28
2019-09-30 01:00:00 22.1 15 Sudeste 18 Sudeste 0 -- -- 29
2019-09-30 00:00:00 23.6 6 Este 9 Sudeste 0 -- -- 25
2019-09-29 23:00:00 24.3 4 Este 10 Este 0 -- -- 24
2019-09-29 22:00:00 24.6 4 Este 11 Este 0 -- -- 22
2019-09-29 21:00:00 24.9 5 Este 9 Sudeste 0 -- -- 23
2019-09-29 20:00:00 25.5 6 Sudeste 12 Este 0 -- -- 23
2019-09-29 19:00:00 28.8 9 Este 18 Sudeste 0 -- -- 24
2019-09-29 18:00:00 28.8 15 Sudeste 20 Este 0 -- -- 37
2019-09-29 17:00:00 31.5 9 Este 14 Este 0 -- -- 27
2019-09-29 16:00:00 31.1 7 Este 19 Sudeste 0 -- -- 33
2019-09-29 15:00:00 29.7 13 Este 22 Este 0 -- -- 45
2019-09-29 14:00:00 31.1 10 Este 20 Este 0 -- -- 32
2019-09-29 13:00:00 28.1 12 Este 23 Este 0 -- -- 48
2019-09-29 12:00:00 27.3 16 Sudeste 23 Sudeste 0 -- -- 48
2019-09-29 11:00:00 27.7 17 Sudeste 27 Sudeste 0 -- -- 36
2019-09-29 10:00:00 24.8 17 Sudeste 22 Sudeste 0 -- -- 33
2019-09-29 09:00:00 21.8 14 Sudeste 19 Sudeste 0 -- -- 42
2019-09-29 08:00:00 15.2 15 Sudeste 17 Sudeste 0 -- -- 74
2019-09-29 07:00:00 13.7 10 Sudeste 17 Sudeste 0 -- -- 95
2019-09-29 06:00:00 14.1 6 Sudeste 8 Sudeste 0 -- -- 96
2019-09-29 05:00:00 16.2 3 Oeste 5 Oeste 0 -- -- 85
2019-09-29 04:00:00 21.8 3 Sudeste 7 Sudeste 0 -- -- 40
2019-09-29 03:00:00 22.1 3 Este 7 Sudeste 0 -- -- 34
2019-09-29 02:00:00 22.3 4 Este 6 Sudeste 0 -- -- 36
2019-09-29 01:00:00 22.2 0 Calma 5 Sudeste 0 -- -- 39
2019-09-29 00:00:00 21.5 0 Calma 5 Sudoeste 0 -- -- 44
2019-09-28 23:00:00 20.8 2 Noroeste 8 Nordeste 0 -- -- 47
2019-09-28 22:00:00 20 7 Nordeste 13 Nordeste 0 -- -- 43
2019-09-28 21:00:00 18.8 7 Este 9 Sudeste 0 -- -- 69
2019-09-28 20:00:00 16.4 4 Oeste 10 Norte 0 -- -- 92
2019-09-28 19:00:00 18.4 5 Noroeste 10 Noroeste 0 -- -- 86
2019-09-28 18:00:00 21.3 4 Noroeste 10 Noroeste 0 -- -- 72
2019-09-28 17:00:00 22.1 4 Noroeste 9 Noroeste 0 -- -- 71
2019-09-28 16:00:00 24.1 4 Norte 12 Sudeste 0 -- -- 64
2019-09-28 15:00:00 24.2 4 Nordeste 15 Sudeste 0 -- -- 64
2019-09-28 14:00:00 23.3 7 Sudeste 20 Sudeste 0 -- -- 66
2019-09-28 13:00:00 22.2 10 Este 19 Este 0 -- -- 71
2019-09-28 12:00:00 19.8 14 Este 20 Sudeste 0 -- -- 79
2019-09-28 11:00:00 18.6 12 Este 23 Este 0 -- -- 84
2019-09-28 10:00:00 16.1 15 Sudeste 22 Sudeste 0 -- -- 97
2019-09-28 09:00:00 15.3 4 Este 11 Noroeste 0 -- -- 99
2019-09-28 08:00:00 14.7 4 Norte 9 Norte 0 -- -- 99
2019-09-28 07:00:00 14.2 3 Norte 6 Norte 0 -- -- 99
2019-09-28 06:00:00 14.7 2 Este 6 Nordeste 0 -- -- 98
2019-09-28 05:00:00 15 3 Noroeste 7 Norte 0 -- -- 99
2019-09-28 04:00:00 14.9 2 Norte 9 Noroeste 0 -- -- 98
2019-09-28 03:00:00 14.9 2 Norte 8 Norte 0 -- -- 98
2019-09-28 02:00:00 14.9 2 Norte 5 Noroeste 0 -- -- 98
2019-09-28 01:00:00 14.9 2 Norte 6 Este 0 -- -- 97
2019-09-28 00:00:00 15.1 0 Calma 7 Norte 0 -- -- 97
2019-09-27 23:00:00 15.2 2 Nordeste 6 Nordeste 0 -- -- 97
2019-09-27 22:00:00 14.8 3 Norte 8 Norte 0 -- -- 96
2019-09-27 21:00:00 15.7 0 Calma 8 Norte 0 -- -- 94
2019-09-27 20:00:00 16.1 3 Norte 10 Norte 0 -- -- 92
2019-09-27 19:00:00 17.3 4 Norte 13 Norte 0 -- -- 86
2019-09-27 18:00:00 18.7 8 Noroeste 12 Norte 0 -- -- 81
2019-09-27 17:00:00 19.4 8 Norte 15 Norte 0 -- -- 80
2019-09-27 16:00:00 21.6 9 Noroeste 19 Norte 0 -- -- 71
2019-09-27 15:00:00 21 10 Norte 19 Noroeste 0 -- -- 74
2019-09-27 14:00:00 22.2 8 Noroeste 14 Norte 0 -- -- 70
2019-09-27 13:00:00 21 5 Norte 13 Norte 0 -- -- 73
2019-09-27 12:00:00 21.9 6 Sudeste 12 Sudeste 0 -- -- 71
2019-09-27 11:00:00 17.7 2 Norte 10 Este 0 -- -- 91
2019-09-27 10:00:00 16.1 2 Nordeste 8 Norte 0 -- -- 98
2019-09-27 09:00:00 15.1 4 Norte 6 Nordeste 0 -- -- 98
2019-09-27 08:00:00 14.9 3 Nordeste 10 Nordeste 0 -- -- 98
2019-09-27 07:00:00 15.1 3 Este 8 Oeste 0 -- -- 98
2019-09-27 06:00:00 14.8 4 Oeste 10 Norte 0 -- -- 98
2019-09-27 05:00:00 14.8 4 Norte 9 Noroeste 0 -- -- 98
2019-09-27 04:00:00 15.1 4 Oeste 10 Norte 0 -- -- 98
2019-09-27 03:00:00 15.3 3 Oeste 9 Norte 0 -- -- 98
2019-09-27 02:00:00 15.2 4 Norte 9 Nordeste 0 -- -- 98
2019-09-27 01:00:00 15.4 3 Noroeste 9 Este 0 -- -- 98
2019-09-27 00:00:00 15.2 3 Norte 9 Nordeste 0 -- -- 97
2019-09-26 23:00:00 15.7 2 Norte 9 Este 0 -- -- 96
2019-09-26 22:00:00 15.3 2 Sur 10 Oeste 0 -- -- 95
2019-09-26 21:00:00 15.5 4 Norte 12 Norte 0 -- -- 93
2019-09-26 20:00:00 16.1 5 Norte 8 Norte 0 -- -- 92
2019-09-26 19:00:00 17.2 3 Noroeste 8 Noroeste 0 -- -- 88
2019-09-26 18:00:00 17.9 5 Norte 13 Norte 0 -- -- 86
2019-09-26 17:00:00 21.5 7 Norte 13 Noroeste 0 -- -- 74
2019-09-26 16:00:00 22.8 4 Nordeste 16 Sudeste 0 -- -- 67
2019-09-26 15:00:00 21.1 4 Nordeste 12 Este 0 -- -- 73
2019-09-26 14:00:00 19.2 6 Norte 14 Norte 0 -- -- 85
2019-09-26 13:00:00 20.5 5 Nordeste 12 Este 0 -- -- 78
2019-09-26 12:00:00 18.4 4 Este 15 Este 0 -- -- 84
2019-09-26 11:00:00 16.7 4 Norte 11 Norte 0 -- -- 95
2019-09-26 10:00:00 16 3 Norte 9 Este 0 -- -- 98
2019-09-26 09:00:00 15.2 0 Calma 9 Norte 0 -- -- 98
2019-09-26 08:00:00 14.9 3 Nordeste 8 Sudeste 0 -- -- 98
2019-09-26 07:00:00 14.8 3 Nordeste 12 Este 0 -- -- 98
2019-09-26 06:00:00 15 4 Norte 12 Norte 0 -- -- 98
2019-09-26 05:00:00 14.8 3 Este 7 Este 0 -- -- 98
2019-09-26 04:00:00 14.7 0 Calma 10 Este 0 -- -- 98
2019-09-26 03:00:00 14.6 7 Este 15 Nordeste 0 -- -- 98
2019-09-26 02:00:00 14.3 10 Sudeste 17 Este 0 -- -- 98
2019-09-26 01:00:00 14.2 11 Este 15 Este 0 -- -- 97
2019-09-26 00:00:00 14.3 7 Este 15 Sudeste 0 -- -- 97
2019-09-25 23:00:00 14.8 8 Sudeste 12 Este 0 -- -- 96
2019-09-25 22:00:00 15 4 Sudeste 10 Nordeste 0 -- -- 95
2019-09-25 21:00:00 14.9 3 Nordeste 12 Nordeste 0 -- -- 93
2019-09-25 20:00:00 16.4 2 Norte 8 Nordeste 0 -- -- 86
2019-09-25 19:00:00 19.6 4 Noroeste 10 Noroeste 0 -- -- 75
2019-09-25 18:00:00 21.2 6 Noroeste 12 Noroeste 0 -- -- 70
2019-09-25 17:00:00 22.7 5 Norte 12 Noroeste 0 -- -- 64
2019-09-25 16:00:00 23.5 4 Noroeste 11 Oeste 0 -- -- 61
2019-09-25 15:00:00 23.1 5 Nordeste 14 Noroeste 0 -- -- 61
2019-09-25 14:00:00 23.1 4 Norte 10 Oeste 0 -- -- 63
2019-09-25 13:00:00 22.7 4 Este 12 Sudeste 0 -- -- 64
2019-09-25 12:00:00 23.7 4 Este 12 Sudeste 0 -- -- 54
2019-09-25 11:00:00 20.2 6 Norte 11 Norte 0 -- -- 67
2019-09-25 10:00:00 16.4 6 Norte 12 Norte 0 -- -- 86
2019-09-25 09:00:00 14.6 5 Norte 9 Norte 0 -- -- 93
2019-09-25 08:00:00 13.9 4 Norte 11 Noroeste 0 -- -- 95
2019-09-25 07:00:00 14.1 4 Sudoeste 13 Oeste 0 -- -- 96
2019-09-25 06:00:00 14.1 6 Noroeste 13 Noroeste 0 -- -- 97
2019-09-25 05:00:00 13.9 6 Oeste 10 Norte 0 -- -- 97
2019-09-25 04:00:00 14 4 Noroeste 10 Noroeste 0 -- -- 97
2019-09-25 03:00:00 14 4 Norte 10 Norte 0 -- -- 96
2019-09-25 02:00:00 14.1 4 Sudoeste 10 Sudoeste 0 -- -- 97
2019-09-25 01:00:00 14.1 3 Este 8 Norte 0 -- -- 97
2019-09-25 00:00:00 14.2 4 Noroeste 12 Norte 0 -- -- 97
2019-09-24 23:00:00 14.1 2 Noroeste 11 Norte 0 -- -- 97
2019-09-24 22:00:00 13.7 6 Norte 12 Noroeste 0 -- -- 97
2019-09-24 21:00:00 13.8 3 Norte 7 Norte 0 -- -- 95
2019-09-24 20:00:00 15.3 4 Noroeste 10 Norte 0 -- -- 91
2019-09-24 19:00:00 18 4 Norte 11 Norte 0 -- -- 80
2019-09-24 18:00:00 18.8 7 Norte 16 Nordeste 0 -- -- 78
2019-09-24 17:00:00 19.7 8 Norte 15 Norte 0.2 -- -- 75
2019-09-24 16:00:00 17.6 6 Norte 15 Norte 0 -- -- 85
2019-09-24 15:00:00 18.3 6 Norte 14 Norte 0 -- -- 81
2019-09-24 14:00:00 18.3 6 Noroeste 13 Norte 0 -- -- 84
2019-09-24 13:00:00 16.7 7 Norte 18 Noroeste 0 -- -- 92
2019-09-24 12:00:00 16.3 6 Noroeste 14 Norte 0 -- -- 97
2019-09-24 11:00:00 15.8 4 Noroeste 13 Norte 0 -- -- 97
2019-09-24 10:00:00 15.2 6 Norte 17 Norte 0.2 -- -- 98
2019-09-24 09:00:00 15 4 Noroeste 9 Oeste 0 -- -- 98
2019-09-24 08:00:00 14.4 5 Norte 14 Norte 0 -- -- 98
2019-09-24 07:00:00 15 5 Noroeste 12 Norte 0.2 -- -- 97
2019-09-24 06:00:00 15.2 5 Nordeste 9 Nordeste 0 -- -- 98
2019-09-24 05:00:00 14.6 3 Sudoeste 9 Norte 0 -- -- 98
2019-09-24 04:00:00 14.4 4 Nordeste 9 Nordeste 0 -- -- 98
2019-09-24 03:00:00 14.6 6 Norte 11 Nordeste 0 -- -- 98
2019-09-24 02:00:00 13.9 4 Nordeste 10 Este 0 -- -- 97
2019-09-24 01:00:00 14.8 0 Calma 8 Nordeste 0 -- -- 97
2019-09-24 00:00:00 14.3 5 Sudeste 12 Este 0 -- -- 96
2019-09-23 23:00:00 14.3 2 Sudeste 8 Nordeste 0 -- -- 94
2019-09-23 22:00:00 15 3 Este 10 Noroeste 0 -- -- 93
2019-09-23 21:00:00 15.4 0 Calma 10 Norte 0 -- -- 93
2019-09-23 20:00:00 16 3 Norte 8 Norte 0 -- -- 89
2019-09-23 19:00:00 17.4 2 Nordeste 10 Norte 0 -- -- 82
2019-09-23 18:00:00 19.1 5 Este 18 Noroeste 0 -- -- 72
2019-09-23 17:00:00 19.5 8 Norte 17 Norte 0 -- -- 72
2019-09-23 16:00:00 19.5 10 Norte 18 Norte 0 -- -- 74
2019-09-23 15:00:00 17.7 7 Norte 15 Norte 0 -- -- 88
2019-09-23 14:00:00 19.6 6 Este 14 Norte 0 -- -- 80
2019-09-23 13:00:00 18 7 Este 14 Este 0 -- -- 85
2019-09-23 12:00:00 18.4 6 Norte 14 Nordeste 0 -- -- 83
2019-09-23 11:00:00 18.4 6 Norte 10 Norte 0 -- -- 93
2019-09-23 10:00:00 15.8 4 Nordeste 10 Sudeste 0 -- -- 99
2019-09-23 09:00:00 15.1 4 Noroeste 11 Noroeste 0.2 -- -- 98
2019-09-23 08:00:00 14.9 3 Sur 9 Norte 0 -- -- 99
2019-09-23 07:00:00 15.4 4 Norte 9 Norte 0 -- -- 98
2019-09-23 06:00:00 16.1 3 Noroeste 8 Oeste 0 -- -- 98
2019-09-23 05:00:00 16.1 4 Oeste 9 Oeste 0 -- -- 99
2019-09-23 04:00:00 16 2 Oeste 8 Norte 0 -- -- 98
2019-09-23 03:00:00 15.4 4 Norte 6 Nordeste 0 -- -- 98
2019-09-23 02:00:00 16.4 3 Sudeste 8 Norte 0.2 -- -- 98
2019-09-23 01:00:00 17 3 Nordeste 9 Nordeste 0.2 -- -- 98
2019-09-23 00:00:00 17.2 0 Calma 10 Norte 1.6 -- -- 98
2019-09-22 23:00:00 16.9 2 Sudeste 14 Norte 0.4 -- -- 98
2019-09-22 22:00:00 17.3 5 Norte 21 Norte 1.2 -- -- 97
2019-09-22 21:00:00 17.6 8 Norte 22 Norte 2.2 -- -- 97
2019-09-22 20:00:00 18.5 6 Norte 12 Noroeste 1.2 -- -- 95
2019-09-22 19:00:00 19.4 4 Norte 12 Norte 0 -- -- 92
2019-09-22 18:00:00 21.4 7 Norte 15 Noroeste 0 -- -- 79
2019-09-22 17:00:00 22.9 10 Norte 19 Norte 0 -- -- 73
2019-09-22 16:00:00 22 8 Norte 20 Norte 0 -- -- 76
2019-09-22 15:00:00 23.6 12 Norte 22 Norte 0 -- -- 70
2019-09-22 14:00:00 24 8 Norte 20 Norte 0 -- -- 65
2019-09-22 13:00:00 23.6 12 Norte 19 Norte 0 -- -- 68
2019-09-22 12:00:00 24.1 4 Noroeste 18 Noroeste 0 -- -- 65
2019-09-22 11:00:00 22.5 10 Norte 17 Norte 0 -- -- 69
2019-09-22 10:00:00 19.9 5 Norte 8 Norte 0 -- -- 76
2019-09-22 09:00:00 18 5 Sudoeste 6 Sudoeste 0 -- -- 77
2019-09-22 08:00:00 16.6 4 Nordeste 6 Nordeste 0 -- -- 82
2019-09-22 07:00:00 16.8 2 Sur 8 Oeste 0 -- -- 75
2019-09-22 06:00:00 15.4 3 Oeste 8 Norte 0 -- -- 78
2019-09-22 05:00:00 16.5 5 Norte 8 Noroeste 0 -- -- 74
2019-09-22 04:00:00 16.9 4 Oeste 5 Noroeste 0 -- -- 71
2019-09-22 03:00:00 15.6 4 Oeste 12 Oeste 0 -- -- 87
2019-09-22 02:00:00 15.7 7 Oeste 11 Oeste 0 -- -- 86
2019-09-22 01:00:00 15.3 8 Noroeste 13 Norte 0 -- -- 87
2019-09-22 00:00:00 15.6 8 Noroeste 18 Oeste 0 -- -- 88